Lodz, Poland

2:12 AM CEST on October 01, 2014 (GMT +0200)
Lublinek | Change Station
CLOSE
Current Station
Airport
Location: Lublinek,
Elevation: 604 ft
Nearby Weather Stations

Elev 604 ft 51.72 °N, 19.40 °E | Updated 42 minutes ago

Light Rain Showers
Light Showers Rain Mist
59 °F
Feels Like 59 °F
N
4
Wind Variable Wind from East

Today
High -- | Low -- °F
--% Chance of Precip.
Yesterday
High -- | Low -- °F
Precip. -- in
6:42 AM 6:20 PM
Waxing Crescent, 41% visible
Pressure 30.27 in
Visibility 1.6 miles
Clouds Mostly Cloudy 300 ft
Mostly Cloudy 1300 ft
Dew Point 59 °F
Humidity 100%
Rainfall 0.00 in
Snow Depth Not available.
UV 0 out of 12
Pollen Not available.
Air Quality Not available.
Flu Activity Not available.
METAR EPLL 302330Z 09003KT 2500 -SHRA BR BKN003 BKN013CB 15/15 Q1025

More Conditions Fewer Conditions

Pressure 30.27 in
Visibility 1.6 miles
Clouds Mostly Cloudy 300 ft
Mostly Cloudy 1300 ft
Dew Point 59 °F
Humidity 100%
Rainfall 0.00 in
Snow Depth Not available.
UV 0 out of 12
Pollen Not available.
Air Quality Not available.
Flu Activity Not available.
METAR EPLL 302330Z 09003KT 2500 -SHRA BR BKN003 BKN013CB 15/15 Q1025

More Conditions Fewer Conditions

10-Day Weather Forecast

Almanac

Astronomy

Oct. 01, 2014 Rise Set
Actual Time 6:42 AM CEST 6:20 PM CEST
Civil Twilight 6:09 AM CEST 6:53 PM CEST
Nautical Twilight 5:30 AM CEST 7:32 PM CEST
Astronomical Twilight 4:50 AM CEST 8:12 PM CEST
Moon 1:59 PM CEST 11:02 PM CEST
Length of Visible Light 12h 44m
Length of Day
11h 37m
Tomorrow will be 3m 56s shorter.
Waxing Crescent, 41% of the Moon is Illuminated
Sep 30
Waxing Crescent
Oct 1
First Quarter
Oct 8
Full
Oct 15
Last Quarter
Oct 23
New

Yesterday's Extremes

Country Highs Country Lows

Community

WunderPhotos

Upload Photos

1,757,788 photos uploaded!

Nearby

Snow Depth

Not available.

Earthquake Activity

City Distance Mag. Time & Date
No recent earthquake activity has been reported nearby.
Minimum magnitude displayed is 2.5.

Coastal Water Temperatures

Place Temperature
No Stations Reporting

Nearby Weather Stations